Time;durP1;ratioP1;P1;durP2;ratioP2;P2;SDS_P1;SDS_P2;PMS_P1;PMS_P2;Temp;Humidity;BMP_temperature;BMP_pressure;BME280_temperature;BME280_humidity;BME280_pressure;Samples;Min_cycle;Max_cycle;Signal;HPM_P1;HPM_P2
2022/05/23 00:02:03;;;;;;;3.83;2.45;;;;;;;;;;5017965;28;20051;-52
2022/05/23 00:04:28;;;;;;;3.25;2.45;;;;;;;;;;5020068;28;20029;-52
2022/05/23 00:06:54;;;;;;;3.33;2.30;;;;;;;;;;5017941;28;20473;-53
2022/05/23 00:09:19;;;;;;;2.60;2.40;;;;;;;;;;5020176;28;20284;-52
2022/05/23 00:11:45;;;;;;;4.07;2.50;;;;;;;;;;5015447;28;20021;-53
2022/05/23 00:14:10;;;;;;;3.07;2.20;;;;;;;;;;5020899;28;20021;-53
2022/05/23 00:16:40;;;;;;;2.72;2.33;;;;;;;;;;5034095;28;20287;-53
2022/05/23 00:19:05;;;;;;;3.53;2.40;;;;;;;;;;5007428;28;20099;-52
2022/05/23 00:21:31;;;;;;;3.87;2.40;;;;;;;;;;5018361;28;20025;-52
2022/05/23 00:23:56;;;;;;;5.90;2.60;;;;;;;;;;5021445;28;20782;-52
2022/05/23 00:26:21;;;;;;;4.45;2.20;;;;;;;;;;5019633;28;20030;-52
2022/05/23 00:28:47;;;;;;;3.15;2.60;;;;;;;;;;5034372;28;20690;-52
2022/05/23 00:31:12;;;;;;;3.15;2.20;;;;;;;;;;5018933;28;20029;-52
2022/05/23 00:36:25;;;;;;;3.70;2.40;;;;;;;;;;5019254;28;20360;-51
2022/05/23 00:38:50;;;;;;;3.35;2.53;;;;;;;;;;5019814;28;20017;-52
2022/05/23 00:44:14;;;;;;;2.78;2.20;;;;;;;;;;5019848;28;20032;-51
2022/05/23 00:46:49;;;;;;;2.75;2.45;;;;;;;;;;5017214;28;20022;-51
2022/05/23 00:49:15;;;;;;;5.25;2.55;;;;;;;;;;5020047;28;20025;-53
2022/05/23 00:51:40;;;;;;;3.57;2.80;;;;;;;;;;5020965;28;20079;-55
2022/05/23 00:54:05;;;;;;;3.37;2.70;;;;;;;;;;5035579;28;20399;-53
2022/05/23 00:56:34;;;;;;;3.40;3.00;;;;;;;;;;5019625;28;20050;-53
2022/05/23 00:59:00;;;;;;;3.42;2.80;;;;;;;;;;5035343;28;20835;-53
2022/05/23 01:01:26;;;;;;;4.05;2.97;;;;;;;;;;5017745;28;20025;-52
2022/05/23 01:03:51;;;;;;;4.95;3.33;;;;;;;;;;5017143;28;20096;-53
2022/05/23 01:06:17;;;;;;;4.82;2.90;;;;;;;;;;5018465;28;20025;-54
2022/05/23 01:08:42;;;;;;;5.43;2.90;;;;;;;;;;5016706;28;20108;-53
2022/05/23 01:11:07;;;;;;;3.80;2.97;;;;;;;;;;5033288;28;20280;-51
2022/05/23 01:13:33;;;;;;;3.45;3.15;;;;;;;;;;5019776;28;20022;-53
2022/05/23 01:15:58;;;;;;;4.10;2.93;;;;;;;;;;5018333;28;20009;-53
2022/05/23 01:18:23;;;;;;;4.93;3.03;;;;;;;;;;5015802;28;20264;-51
2022/05/23 01:20:51;;;;;;;4.07;2.80;;;;;;;;;;5017664;28;20038;-52
2022/05/23 01:23:22;;;;;;;5.85;3.30;;;;;;;;;;5024013;28;20282;-52
2022/05/23 01:25:47;;;;;;;5.03;2.90;;;;;;;;;;5022514;28;20022;-53
2022/05/23 01:28:13;;;;;;;3.30;2.97;;;;;;;;;;5022730;28;20075;-54
2022/05/23 01:30:39;;;;;;;4.07;2.80;;;;;;;;;;5023279;28;20064;-53
2022/05/23 01:33:04;;;;;;;3.67;3.03;;;;;;;;;;5021810;28;20542;-53
2022/05/23 01:35:29;;;;;;;4.85;3.05;;;;;;;;;;5023405;28;20022;-52
2022/05/23 01:37:55;;;;;;;3.97;3.17;;;;;;;;;;5022249;28;20775;-54
2022/05/23 01:40:20;;;;;;;5.05;3.10;;;;;;;;;;5023410;28;20041;-52
2022/05/23 01:42:45;;;;;;;4.40;2.95;;;;;;;;;;5019733;28;20746;-53
2022/05/23 01:45:11;;;;;;;4.82;3.20;;;;;;;;;;5023289;28;20029;-53
2022/05/23 01:47:37;;;;;;;5.68;3.33;;;;;;;;;;5018984;28;20033;-52
2022/05/23 01:50:02;;;;;;;5.90;3.15;;;;;;;;;;5020370;28;20066;-52
2022/05/23 01:52:27;;;;;;;6.15;3.05;;;;;;;;;;5021084;28;20671;-52
2022/05/23 01:54:52;;;;;;;6.80;3.07;;;;;;;;;;5021588;28;20033;-55
2022/05/23 01:57:18;;;;;;;4.30;3.47;;;;;;;;;;5023859;28;20299;-52
2022/05/23 02:02:27;;;;;;;3.95;3.15;;;;;;;;;;5022541;28;20040;-52
2022/05/23 02:04:52;;;;;;;5.03;2.90;;;;;;;;;;5022048;28;20026;-54
2022/05/23 02:07:17;;;;;;;5.53;3.30;;;;;;;;;;5024468;28;20017;-53
2022/05/23 02:09:42;;;;;;;5.03;3.17;;;;;;;;;;5022857;28;20274;-52
2022/05/23 02:12:08;;;;;;;5.35;3.22;;;;;;;;;;5018585;28;20026;-53
2022/05/23 02:14:33;;;;;;;5.55;3.63;;;;;;;;;;5037840;28;20477;-54
2022/05/23 02:16:59;;;;;;;5.30;2.90;;;;;;;;;;5020713;28;20029;-54
2022/05/23 02:19:24;;;;;;;7.40;3.15;;;;;;;;;;5013912;28;20055;-55
2022/05/23 02:21:49;;;;;;;4.87;3.00;;;;;;;;;;5014638;28;20029;-52
2022/05/23 02:24:14;;;;;;;6.35;3.30;;;;;;;;;;5021593;28;20283;-53
2022/05/23 02:26:39;;;;;;;4.70;3.20;;;;;;;;;;5018691;28;20523;-51
2022/05/23 02:29:08;;;;;;;3.43;3.07;;;;;;;;;;5019735;28;20342;-53
2022/05/23 02:31:33;;;;;;;4.80;3.30;;;;;;;;;;5019705;28;20013;-54
2022/05/23 02:33:58;;;;;;;4.30;2.90;;;;;;;;;;5021158;28;20044;-53
2022/05/23 02:36:23;;;;;;;4.27;3.10;;;;;;;;;;5021876;28;20022;-54
2022/05/23 02:38:49;;;;;;;6.53;3.40;;;;;;;;;;5022239;28;20365;-51
2022/05/23 02:41:14;;;;;;;6.73;3.40;;;;;;;;;;5021935;28;20068;-52
2022/05/23 02:43:39;;;;;;;6.23;3.20;;;;;;;;;;5021512;28;20357;-52
2022/05/23 02:46:04;;;;;;;5.30;3.23;;;;;;;;;;5022159;28;20384;-56
2022/05/23 02:48:30;;;;;;;4.28;3.15;;;;;;;;;;5020844;28;20190;-54
2022/05/23 02:50:55;;;;;;;5.38;3.20;;;;;;;;;;5019803;28;20471;-52
2022/05/23 02:53:20;;;;;;;5.67;3.13;;;;;;;;;;5023302;28;20033;-53
2022/05/23 02:55:45;;;;;;;5.00;3.50;;;;;;;;;;5019450;28;20017;-54
2022/05/23 02:58:11;;;;;;;5.30;3.43;;;;;;;;;;5021082;28;20116;-53
2022/05/23 03:00:36;;;;;;;5.15;2.95;;;;;;;;;;5022334;28;20129;-51
2022/05/23 03:03:01;;;;;;;4.45;3.47;;;;;;;;;;5018019;28;20056;-52
2022/05/23 03:05:27;;;;;;;6.68;3.38;;;;;;;;;;5020249;28;20091;-54
2022/05/23 03:07:52;;;;;;;4.72;3.40;;;;;;;;;;5011869;28;20495;-53
2022/05/23 03:10:18;;;;;;;4.07;3.30;;;;;;;;;;5021584;28;20028;-54
2022/05/23 03:12:43;;;;;;;6.15;3.50;;;;;;;;;;5018891;28;20806;-52
2022/05/23 03:15:08;;;;;;;5.23;3.40;;;;;;;;;;5023301;28;20029;-52
2022/05/23 03:17:34;;;;;;;4.03;3.50;;;;;;;;;;5012948;28;20699;-53
2022/05/23 03:19:59;;;;;;;6.15;3.30;;;;;;;;;;5018105;28;20104;-55
2022/05/23 03:27:52;;;;;;;4.88;3.55;;;;;;;;;;5009492;28;20534;-53
2022/05/23 03:30:18;;;;;;;4.95;3.53;;;;;;;;;;5018107;28;20053;-56
2022/05/23 03:32:43;;;;;;;5.30;3.23;;;;;;;;;;5020197;28;20500;-53
2022/05/23 03:35:08;;;;;;;5.93;3.50;;;;;;;;;;5019151;28;20349;-51
2022/05/23 03:37:34;;;;;;;5.65;3.45;;;;;;;;;;5035900;28;20030;-55
2022/05/23 03:40:01;;;;;;;4.63;3.53;;;;;;;;;;5020998;28;20040;-55
2022/05/23 03:42:26;;;;;;;6.72;3.80;;;;;;;;;;5019433;28;20504;-55
2022/05/23 03:44:51;;;;;;;8.50;4.13;;;;;;;;;;5022209;28;20025;-54
2022/05/23 03:47:16;;;;;;;6.17;3.90;;;;;;;;;;5019074;28;20793;-56
2022/05/23 03:49:42;;;;;;;7.45;3.83;;;;;;;;;;5020997;28;20551;-54
2022/05/23 03:52:07;;;;;;;5.20;3.50;;;;;;;;;;5019040;28;20023;-54
2022/05/23 03:54:32;;;;;;;6.33;3.90;;;;;;;;;;5020792;28;20014;-56
2022/05/23 03:57:00;;;;;;;6.03;3.67;;;;;;;;;;5018571;28;20423;-56
2022/05/23 03:59:26;;;;;;;5.68;3.65;;;;;;;;;;5021892;28;20441;-53
2022/05/23 04:01:52;;;;;;;6.40;3.80;;;;;;;;;;5020659;28;20013;-52
2022/05/23 04:04:17;;;;;;;7.97;3.60;;;;;;;;;;5020712;28;20104;-54
2022/05/23 04:06:42;;;;;;;7.40;3.60;;;;;;;;;;5022646;28;20049;-52
2022/05/23 04:09:08;;;;;;;5.45;3.60;;;;;;;;;;5018770;28;20109;-58
2022/05/23 04:11:33;;;;;;;7.45;3.92;;;;;;;;;;5019649;28;20238;-52
2022/05/23 04:13:58;;;;;;;7.67;4.50;;;;;;;;;;5008623;28;20017;-55
2022/05/23 04:16:27;;;;;;;5.05;3.72;;;;;;;;;;5020939;28;20022;-53
2022/05/23 04:18:52;;;;;;;6.97;4.38;;;;;;;;;;5016752;28;20385;-53
2022/05/23 04:21:17;;;;;;;5.77;4.13;;;;;;;;;;5015594;28;20083;-55
2022/05/23 04:23:43;;;;;;;6.63;4.47;;;;;;;;;;5009444;28;20691;-53
2022/05/23 04:26:08;;;;;;;7.77;4.50;;;;;;;;;;5025192;28;20033;-54
2022/05/23 04:28:35;;;;;;;6.78;4.20;;;;;;;;;;5009857;28;20280;-53
2022/05/23 04:31:02;;;;;;;7.53;4.20;;;;;;;;;;5008303;28;20038;-54
2022/05/23 04:36:11;;;;;;;7.38;4.78;;;;;;;;;;5012539;28;20072;-53
2022/05/23 04:38:36;;;;;;;7.40;4.07;;;;;;;;;;5010989;28;20026;-53
2022/05/23 04:41:01;;;;;;;6.80;3.97;;;;;;;;;;5005257;28;20034;-53
2022/05/23 04:43:27;;;;;;;6.27;3.93;;;;;;;;;;5004917;28;20017;-57
2022/05/23 04:45:52;;;;;;;6.63;3.77;;;;;;;;;;5009909;28;20272;-54
2022/05/23 04:51:01;;;;;;;6.82;3.15;;;;;;;;;;5013588;28;20266;-53
2022/05/23 04:53:26;;;;;;;5.63;3.72;;;;;;;;;;5001253;28;20030;-52
2022/05/23 04:55:51;;;;;;;3.63;2.78;;;;;;;;;;5013353;28;20144;-54
2022/05/23 04:58:17;;;;;;;4.93;2.65;;;;;;;;;;5022843;28;20029;-52
2022/05/23 05:00:45;;;;;;;5.13;3.20;;;;;;;;;;5017610;28;20102;-54
2022/05/23 05:03:11;;;;;;;4.05;3.03;;;;;;;;;;5008451;28;20026;-53
2022/05/23 05:05:36;;;;;;;5.47;2.63;;;;;;;;;;5018297;28;20029;-53
2022/05/23 05:08:02;;;;;;;3.47;2.65;;;;;;;;;;5024437;28;20033;-61
2022/05/23 05:10:27;;;;;;;3.60;2.28;;;;;;;;;;5020661;28;20029;-56
2022/05/23 05:12:53;;;;;;;8.32;3.65;;;;;;;;;;5009139;28;20026;-52
2022/05/23 05:15:18;;;;;;;29.23;14.50;;;;;;;;;;5007887;28;20113;-55
2022/05/23 05:17:44;;;;;;;72.87;36.67;;;;;;;;;;5005756;28;20021;-56
2022/05/23 05:20:10;;;;;;;67.38;32.55;;;;;;;;;;5004616;28;20307;-52
2022/05/23 05:22:35;;;;;;;55.30;31.73;;;;;;;;;;5007327;28;20080;-56
2022/05/23 05:25:02;;;;;;;62.40;34.33;;;;;;;;;;4985457;28;20026;-56
2022/05/23 05:27:29;;;;;;;40.85;22.23;;;;;;;;;;4986379;28;20125;-56
2022/05/23 05:29:54;;;;;;;23.30;12.13;;;;;;;;;;5003648;28;20053;-68
2022/05/23 05:32:30;;;;;;;11.55;6.13;;;;;;;;;;5017565;28;20525;-52
2022/05/23 05:34:57;;;;;;;7.47;4.05;;;;;;;;;;4718062;28;24958;-59
2022/05/23 05:37:23;;;;;;;9.40;3.88;;;;;;;;;;4976747;28;20060;-56
2022/05/23 05:39:49;;;;;;;3.95;2.70;;;;;;;;;;5003296;28;20068;-54
2022/05/23 05:42:16;;;;;;;3.70;2.45;;;;;;;;;;5003037;28;20060;-55
2022/05/23 05:44:42;;;;;;;3.90;1.77;;;;;;;;;;5002574;28;20053;-56
2022/05/23 05:47:08;;;;;;;3.67;1.95;;;;;;;;;;5001245;28;20030;-59
2022/05/23 05:49:35;;;;;;;4.85;1.80;;;;;;;;;;4994073;28;20038;-55
2022/05/23 05:52:01;;;;;;;3.42;1.73;;;;;;;;;;4990581;28;20382;-55
2022/05/23 05:54:28;;;;;;;2.55;1.42;;;;;;;;;;5002607;28;20486;-53
2022/05/23 05:56:54;;;;;;;6.60;1.80;;;;;;;;;;5012733;28;20026;-60
2022/05/23 05:59:19;;;;;;;5.22;1.70;;;;;;;;;;4997063;28;20030;-54
2022/05/23 06:01:44;;;;;;;3.63;1.63;;;;;;;;;;4985596;28;20800;-59
2022/05/23 06:04:09;;;;;;;4.00;1.90;;;;;;;;;;4986443;28;20258;-53
2022/05/23 06:12:02;;;;;;;2.75;1.60;;;;;;;;;;4985360;28;20080;-56
2022/05/23 06:14:28;;;;;;;3.38;1.55;;;;;;;;;;5025200;28;20601;-55
2022/05/23 06:16:53;;;;;;;3.73;1.80;;;;;;;;;;4998342;28;20025;-53
2022/05/23 06:19:19;;;;;;;3.88;1.90;;;;;;;;;;4988823;28;20065;-54
2022/05/23 06:21:45;;;;;;;5.80;1.73;;;;;;;;;;4986331;28;20029;-56
2022/05/23 06:24:10;;;;;;;5.37;1.50;;;;;;;;;;4993770;28;20030;-57
2022/05/23 06:26:36;;;;;;;4.05;1.75;;;;;;;;;;4993862;28;20320;-56
2022/05/23 06:29:01;;;;;;;5.80;1.95;;;;;;;;;;4987074;28;20081;-54
2022/05/23 06:31:26;;;;;;;4.63;1.98;;;;;;;;;;4984888;28;20481;-55
2022/05/23 06:33:51;;;;;;;4.73;1.87;;;;;;;;;;4983913;28;20020;-53
2022/05/23 06:36:17;;;;;;;6.00;2.10;;;;;;;;;;4989562;28;20276;-59
2022/05/23 06:38:42;;;;;;;2.77;1.50;;;;;;;;;;4985716;28;20030;-52
2022/05/23 06:41:08;;;;;;;4.35;1.92;;;;;;;;;;4984794;28;21114;-53
2022/05/23 06:43:33;;;;;;;3.72;1.83;;;;;;;;;;4986776;28;20069;-56
2022/05/23 06:46:02;;;;;;;2.78;1.80;;;;;;;;;;4986327;28;20508;-52
2022/05/23 06:48:27;;;;;;;5.35;1.92;;;;;;;;;;4985511;28;20333;-53
2022/05/23 06:50:52;;;;;;;2.80;1.90;;;;;;;;;;4987691;28;20065;-55
2022/05/23 06:53:21;;;;;;;3.90;1.80;;;;;;;;;;5001566;28;20018;-54
2022/05/23 06:55:46;;;;;;;5.88;2.10;;;;;;;;;;4985348;28;20104;-53
2022/05/23 06:58:12;;;;;;;4.85;1.80;;;;;;;;;;4998874;28;20424;-54
2022/05/23 07:00:37;;;;;;;4.70;1.67;;;;;;;;;;4998025;28;20022;-58
2022/05/23 07:03:03;;;;;;;3.28;1.90;;;;;;;;;;5000198;28;20069;-53
2022/05/23 07:13:40;;;;;;;5.93;1.77;;;;;;;;;;5000938;28;20080;-56
2022/05/23 07:16:05;;;;;;;7.63;2.10;;;;;;;;;;4996001;28;20018;-54
2022/05/23 07:18:30;;;;;;;4.10;1.90;;;;;;;;;;4993948;28;20034;-54
2022/05/23 07:20:55;;;;;;;3.47;1.70;;;;;;;;;;4993640;28;20099;-53
2022/05/23 07:23:21;;;;;;;4.80;1.40;;;;;;;;;;4992669;28;20280;-53
2022/05/23 07:25:46;;;;;;;6.00;1.83;;;;;;;;;;5001265;28;20018;-54
2022/05/23 07:28:12;;;;;;;4.30;2.30;;;;;;;;;;5001929;28;20046;-53
2022/05/23 07:30:37;;;;;;;4.80;1.75;;;;;;;;;;5001417;28;21668;-54
2022/05/23 07:33:02;;;;;;;7.88;2.08;;;;;;;;;;4999850;28;20025;-52
2022/05/23 07:35:28;;;;;;;3.95;1.80;;;;;;;;;;4999328;28;20029;-54
2022/05/23 07:37:53;;;;;;;4.30;1.60;;;;;;;;;;4998610;28;20022;-53
2022/05/23 07:40:19;;;;;;;4.25;1.95;;;;;;;;;;5000647;28;20305;-52
2022/05/23 07:42:44;;;;;;;5.53;2.00;;;;;;;;;;5001589;28;20021;-52
2022/05/23 07:45:10;;;;;;;3.78;1.80;;;;;;;;;;4998268;28;20068;-53
2022/05/23 07:47:35;;;;;;;3.95;1.75;;;;;;;;;;4999927;28;20063;-53
2022/05/23 07:50:01;;;;;;;4.70;1.63;;;;;;;;;;5002024;28;20095;-53
2022/05/23 07:52:26;;;;;;;6.07;1.98;;;;;;;;;;5000321;28;20260;-53
2022/05/23 08:02:51;;;;;;;4.45;1.73;;;;;;;;;;4996909;28;20091;-54
2022/05/23 08:05:16;;;;;;;6.57;1.83;;;;;;;;;;5001404;28;20026;-52
2022/05/23 08:07:41;;;;;;;4.97;1.83;;;;;;;;;;4998380;28;20069;-52
2022/05/23 08:10:06;;;;;;;5.60;1.93;;;;;;;;;;5001223;28;20063;-52
2022/05/23 08:12:32;;;;;;;6.13;2.03;;;;;;;;;;4999196;28;20026;-53
2022/05/23 08:14:57;;;;;;;3.35;1.80;;;;;;;;;;5012469;28;20675;-53
2022/05/23 08:17:22;;;;;;;4.63;1.85;;;;;;;;;;4996524;28;20875;-53
2022/05/23 08:19:49;;;;;;;4.17;1.70;;;;;;;;;;5000967;28;20033;-57
2022/05/23 08:22:14;;;;;;;4.22;1.60;;;;;;;;;;4997632;28;20279;-55
2022/05/23 08:24:39;;;;;;;4.60;1.83;;;;;;;;;;4998635;28;20274;-53
2022/05/23 08:27:05;;;;;;;3.53;1.73;;;;;;;;;;5001667;28;20029;-53
2022/05/23 08:29:31;;;;;;;3.08;1.60;;;;;;;;;;4999261;28;20528;-54
2022/05/23 08:31:56;;;;;;;3.88;1.80;;;;;;;;;;4999671;28;20631;-53
2022/05/23 08:34:22;;;;;;;3.88;1.50;;;;;;;;;;5006729;28;20018;-53
2022/05/23 08:36:47;;;;;;;2.88;1.90;;;;;;;;;;5001441;28;20260;-53
2022/05/23 08:39:12;;;;;;;4.03;1.70;;;;;;;;;;5004988;28;20028;-54
2022/05/23 08:41:41;;;;;;;2.83;1.60;;;;;;;;;;5002416;28;20018;-54
2022/05/23 08:44:17;;;;;;;3.40;1.50;;;;;;;;;;5019035;28;20072;-52
2022/05/23 08:46:45;;;;;;;3.67;1.55;;;;;;;;;;5003143;28;20114;-54
2022/05/23 08:49:29;;;;;;;3.45;1.23;;;;;;;;;;5003578;28;20493;-53
2022/05/23 08:52:04;;;;;;;4.00;1.60;;;;;;;;;;5000258;28;20022;-52
2022/05/23 08:54:35;;;;;;;2.40;1.25;;;;;;;;;;4995783;28;20032;-53
2022/05/23 08:57:01;;;;;;;2.78;1.20;;;;;;;;;;4986890;28;20026;-53
2022/05/23 08:59:31;;;;;;;4.95;1.60;;;;;;;;;;4988567;28;20037;-52
2022/05/23 09:02:22;;;;;;;4.65;1.90;;;;;;;;;;4990018;28;20037;-52
2022/05/23 09:04:48;;;;;;;4.90;1.70;;;;;;;;;;4992089;28;20614;-53
2022/05/23 09:07:19;;;;;;;4.90;1.30;;;;;;;;;;5016061;28;20493;-52
2022/05/23 09:09:44;;;;;;;1.90;1.30;;;;;;;;;;5001166;28;20633;-52
2022/05/23 09:12:10;;;;;;;4.97;1.63;;;;;;;;;;4997228;28;20018;-52
2022/05/23 09:14:36;;;;;;;4.35;1.50;;;;;;;;;;5003436;28;20121;-53
2022/05/23 09:17:02;;;;;;;4.22;1.60;;;;;;;;;;4988630;28;20027;-53
2022/05/23 09:19:27;;;;;;;3.75;1.70;;;;;;;;;;5019264;28;20137;-53
2022/05/23 09:22:12;;;;;;;5.05;1.50;;;;;;;;;;4996239;28;20049;-53
2022/05/23 09:24:48;;;;;;;3.20;1.30;;;;;;;;;;4998403;28;20397;-54
2022/05/23 09:27:15;;;;;;;4.22;1.50;;;;;;;;;;4986679;28;20026;-53
2022/05/23 09:29:40;;;;;;;4.25;1.50;;;;;;;;;;5004834;28;20046;-53
2022/05/23 09:32:07;;;;;;;5.33;1.70;;;;;;;;;;4991192;28;20093;-53
2022/05/23 09:34:33;;;;;;;4.82;1.30;;;;;;;;;;5030478;28;20268;-52
2022/05/23 09:36:58;;;;;;;7.07;1.98;;;;;;;;;;5002056;28;20113;-53
2022/05/23 09:39:24;;;;;;;3.35;1.35;;;;;;;;;;5003454;28;20128;-52
2022/05/23 09:47:44;;;;;;;;;;;;;;;;;;4989443;28;20454;-51
2022/05/23 09:50:10;;;;;;;3.90;1.50;;;;;;;;;;5002423;28;19905;-54
2022/05/23 09:52:42;;;;;;;3.33;1.52;;;;;;;;;;5003072;28;20097;-53
2022/05/23 09:55:08;;;;;;;1.85;1.42;;;;;;;;;;4998750;28;20580;-53
2022/05/23 09:57:40;;;;;;;3.28;1.80;;;;;;;;;;5000662;28;20037;-53
2022/05/23 10:00:06;;;;;;;4.30;1.23;;;;;;;;;;5004614;28;20042;-54
2022/05/23 10:02:31;;;;;;;3.13;1.52;;;;;;;;;;4999279;28;20512;-52
2022/05/23 10:04:56;;;;;;;4.38;1.60;;;;;;;;;;5002325;28;20046;-52
2022/05/23 10:07:23;;;;;;;4.40;1.60;;;;;;;;;;5001018;28;20517;-52
2022/05/23 10:10:00;;;;;;;2.97;1.50;;;;;;;;;;5015014;28;20052;-52
2022/05/23 10:12:25;;;;;;;3.10;1.50;;;;;;;;;;4998521;28;20018;-53
2022/05/23 10:14:51;;;;;;;2.97;1.40;;;;;;;;;;5001061;28;20006;-55
2022/05/23 10:17:24;;;;;;;2.50;1.40;;;;;;;;;;5016102;28;20314;-52
2022/05/23 10:19:49;;;;;;;3.85;1.40;;;;;;;;;;4997764;28;20100;-53
2022/05/23 10:22:16;;;;;;;3.50;1.67;;;;;;;;;;4990320;28;20410;-54
2022/05/23 10:24:44;;;;;;;3.03;1.40;;;;;;;;;;5003819;28;20050;-55
2022/05/23 10:27:11;;;;;;;5.40;1.67;;;;;;;;;;4999392;28;20038;-53
2022/05/23 10:29:53;;;;;;;4.07;1.50;;;;;;;;;;5000787;28;20104;-52
2022/05/23 10:32:29;;;;;;;2.80;1.67;;;;;;;;;;5001791;28;20113;-52
2022/05/23 10:34:56;;;;;;;2.45;1.42;;;;;;;;;;4998214;28;20010;-53
2022/05/23 10:37:22;;;;;;;1.80;1.20;;;;;;;;;;5001552;28;20096;-53
2022/05/23 10:42:44;;;;;;;4.95;1.30;;;;;;;;;;4999949;28;20033;-54
2022/05/23 10:45:28;;;;;;;2.40;1.63;;;;;;;;;;4996914;28;20026;-55
2022/05/23 10:47:56;;;;;;;2.35;1.17;;;;;;;;;;5001377;28;20025;-54
2022/05/23 10:50:21;;;;;;;2.92;1.50;;;;;;;;;;5015139;28;20471;-56
2022/05/23 10:52:49;;;;;;;2.93;1.40;;;;;;;;;;5000845;28;20022;-54
2022/05/23 10:55:19;;;;;;;2.22;1.45;;;;;;;;;;4998743;28;20060;-54
2022/05/23 10:57:59;;;;;;;2.92;1.20;;;;;;;;;;4998563;28;20220;-58
2022/05/23 11:00:44;;;;;;;4.80;1.30;;;;;;;;;;4997955;28;20128;-54
2022/05/23 11:03:18;;;;;;;3.13;1.20;;;;;;;;;;4966974;28;20029;-56
2022/05/23 11:05:52;;;;;;;2.50;1.40;;;;;;;;;;5001768;28;20025;-54
2022/05/23 11:08:28;;;;;;;2.38;1.30;;;;;;;;;;4998788;28;20024;-53
2022/05/23 11:10:56;;;;;;;3.97;1.55;;;;;;;;;;4997774;28;20018;-54
2022/05/23 11:13:31;;;;;;;3.45;1.50;;;;;;;;;;4999188;28;20160;-58
2022/05/23 11:15:56;;;;;;;2.72;1.17;;;;;;;;;;4997508;28;20026;-53
2022/05/23 11:18:27;;;;;;;1.87;1.10;;;;;;;;;;5000038;28;20503;-55
2022/05/23 11:20:53;;;;;;;3.83;1.20;;;;;;;;;;5031213;28;20599;-54
2022/05/23 11:23:24;;;;;;;2.75;1.20;;;;;;;;;;5014700;28;20064;-56
2022/05/23 11:26:01;;;;;;;2.67;1.17;;;;;;;;;;4999372;28;20574;-55
2022/05/23 11:34:13;;;;;;;4.18;1.27;;;;;;;;;;4998249;28;20032;-54
2022/05/23 11:36:57;;;;;;;2.50;1.20;;;;;;;;;;5014826;28;20029;-54
2022/05/23 11:39:41;;;;;;;3.20;1.23;;;;;;;;;;5010650;28;20042;-54
2022/05/23 11:42:17;;;;;;;2.80;1.10;;;;;;;;;;5000046;28;20022;-53
2022/05/23 11:44:42;;;;;;;3.35;1.33;;;;;;;;;;4998474;28;20052;-53
2022/05/23 11:47:21;;;;;;;3.20;1.47;;;;;;;;;;4993880;28;20932;-55
2022/05/23 11:49:58;;;;;;;2.22;1.30;;;;;;;;;;4995115;28;20319;-54
2022/05/23 11:52:24;;;;;;;2.53;1.20;;;;;;;;;;4997767;28;20006;-53
2022/05/23 11:54:49;;;;;;;3.47;1.23;;;;;;;;;;4987840;28;20040;-52
2022/05/23 11:57:29;;;;;;;1.93;1.10;;;;;;;;;;5000106;28;20439;-53
2022/05/23 11:59:54;;;;;;;3.53;1.10;;;;;;;;;;4997922;28;20104;-53
2022/05/23 12:02:20;;;;;;;2.53;1.03;;;;;;;;;;4998382;28;20626;-51
2022/05/23 12:04:48;;;;;;;3.40;1.38;;;;;;;;;;4994364;28;20384;-54
2022/05/23 12:07:32;;;;;;;3.83;1.10;;;;;;;;;;4996810;28;20272;-54
2022/05/23 12:10:16;;;;;;;3.42;1.40;;;;;;;;;;4995007;28;20034;-52
2022/05/23 12:12:47;;;;;;;2.78;1.20;;;;;;;;;;4996526;28;20561;-53
2022/05/23 12:15:32;;;;;;;2.53;1.30;;;;;;;;;;4997253;28;20105;-52
2022/05/23 12:17:57;;;;;;;2.30;1.13;;;;;;;;;;4999865;28;20033;-53
2022/05/23 12:20:23;;;;;;;3.03;1.27;;;;;;;;;;5011567;28;20092;-57
2022/05/23 12:23:08;;;;;;;3.80;1.33;;;;;;;;;;5011734;28;20006;-55
2022/05/23 12:25:33;;;;;;;2.95;1.33;;;;;;;;;;4999575;28;20485;-53
2022/05/23 12:28:03;;;;;;;4.37;1.20;;;;;;;;;;4999065;28;20022;-52
2022/05/23 12:30:42;;;;;;;2.72;1.20;;;;;;;;;;5014824;28;20053;-54
2022/05/23 12:33:11;;;;;;;4.07;1.60;;;;;;;;;;4996865;28;20013;-53
2022/05/23 12:35:36;;;;;;;3.83;1.23;;;;;;;;;;5014480;28;20045;-54
2022/05/23 12:38:22;;;;;;;1.97;1.37;;;;;;;;;;4997732;28;20700;-53
2022/05/23 12:41:07;;;;;;;3.00;1.10;;;;;;;;;;5014261;28;20030;-55
2022/05/23 12:43:41;;;;;;;2.75;1.30;;;;;;;;;;4999917;28;20049;-52
2022/05/23 12:46:12;;;;;;;1.98;1.40;;;;;;;;;;5001612;28;20054;-52
2022/05/23 12:48:50;;;;;;;3.53;1.40;;;;;;;;;;5000051;28;20022;-53
2022/05/23 12:51:26;;;;;;;2.47;1.30;;;;;;;;;;4999089;28;20025;-54
2022/05/23 12:54:10;;;;;;;2.95;1.30;;;;;;;;;;4999083;28;20081;-52
2022/05/23 12:56:35;;;;;;;4.70;1.20;;;;;;;;;;4998118;28;20022;-53
2022/05/23 12:59:03;;;;;;;3.10;1.43;;;;;;;;;;5000531;28;20408;-53
2022/05/23 13:01:30;;;;;;;2.45;1.30;;;;;;;;;;4998135;28;20493;-52
2022/05/23 13:04:09;;;;;;;2.00;1.30;;;;;;;;;;5015391;28;20026;-53
2022/05/23 13:06:40;;;;;;;3.75;1.35;;;;;;;;;;4997181;28;20029;-52
2022/05/23 13:09:06;;;;;;;4.43;1.45;;;;;;;;;;5016502;28;20129;-52
2022/05/23 13:11:33;;;;;;;1.40;1.13;;;;;;;;;;4998449;28;20025;-54
2022/05/23 13:13:59;;;;;;;2.83;1.08;;;;;;;;;;5014942;28;20018;-51
2022/05/23 13:16:25;;;;;;;2.22;1.20;;;;;;;;;;4999441;28;20664;-53
2022/05/23 13:27:03;;;;;;;4.63;1.83;;;;;;;;;;5003210;28;20069;-51
2022/05/23 13:29:29;;;;;;;3.63;1.30;;;;;;;;;;5015305;28;20049;-54
2022/05/23 13:31:58;;;;;;;2.25;1.13;;;;;;;;;;5003177;28;20401;-52
2022/05/23 13:34:24;;;;;;;3.00;1.38;;;;;;;;;;5004164;28;20064;-52
2022/05/23 13:36:49;;;;;;;3.08;1.38;;;;;;;;;;4999235;28;20022;-54
2022/05/23 13:39:15;;;;;;;3.13;1.35;;;;;;;;;;5004493;28;20213;-52
2022/05/23 13:41:40;;;;;;;1.65;1.08;;;;;;;;;;5003161;28;20853;-52
2022/05/23 13:44:05;;;;;;;2.25;1.30;;;;;;;;;;5017345;28;20767;-53
2022/05/23 13:46:32;;;;;;;2.97;1.57;;;;;;;;;;5002113;28;20026;-53
2022/05/23 13:49:00;;;;;;;2.60;1.30;;;;;;;;;;5016585;28;20269;-52
2022/05/23 13:51:29;;;;;;;2.60;1.48;;;;;;;;;;5001164;28;20482;-52
2022/05/23 13:54:06;;;;;;;5.97;1.23;;;;;;;;;;5018826;28;20025;-52
2022/05/23 13:56:31;;;;;;;4.63;1.50;;;;;;;;;;5018266;28;20029;-53
2022/05/23 13:58:58;;;;;;;4.65;1.60;;;;;;;;;;5005101;28;20496;-52
2022/05/23 14:01:34;;;;;;;4.43;1.40;;;;;;;;;;5001871;28;20076;-52
2022/05/23 14:04:00;;;;;;;2.63;1.20;;;;;;;;;;5016692;28;20518;-52
2022/05/23 14:06:36;;;;;;;2.42;1.48;;;;;;;;;;5003152;28;20034;-52
2022/05/23 14:09:02;;;;;;;3.65;1.60;;;;;;;;;;5002500;28;20018;-52
2022/05/23 14:11:28;;;;;;;5.63;1.58;;;;;;;;;;5002381;28;20032;-52
2022/05/23 14:13:57;;;;;;;2.90;1.40;;;;;;;;;;5003848;28;20021;-53
2022/05/23 14:16:22;;;;;;;3.53;1.65;;;;;;;;;;5000050;28;20060;-53
2022/05/23 14:19:00;;;;;;;4.23;2.00;;;;;;;;;;5000246;28;20447;-52
2022/05/23 14:21:35;;;;;;;2.10;1.73;;;;;;;;;;5032666;28;20044;-52
2022/05/23 14:24:02;;;;;;;3.20;1.95;;;;;;;;;;5004590;28;20024;-51
2022/05/23 14:26:28;;;;;;;4.65;2.40;;;;;;;;;;5002176;28;20038;-51
2022/05/23 14:28:56;;;;;;;4.15;1.92;;;;;;;;;;5004001;28;20061;-51
2022/05/23 14:31:29;;;;;;;3.45;1.83;;;;;;;;;;5001276;28;20024;-53
2022/05/23 14:33:59;;;;;;;2.75;1.60;;;;;;;;;;5016736;28;20037;-52
2022/05/23 14:36:25;;;;;;;4.32;1.63;;;;;;;;;;5017159;28;20022;-51
2022/05/23 14:38:52;;;;;;;2.45;1.40;;;;;;;;;;5002207;28;20022;-54
2022/05/23 14:41:19;;;;;;;4.80;1.70;;;;;;;;;;5001981;28;20025;-53
2022/05/23 14:43:44;;;;;;;2.72;1.77;;;;;;;;;;5014112;28;20055;-51
2022/05/23 14:46:35;;;;;;;2.90;1.50;;;;;;;;;;5002236;28;20025;-52
2022/05/23 14:49:16;;;;;;;2.65;1.40;;;;;;;;;;5001642;28;20375;-52
2022/05/23 14:51:42;;;;;;;2.30;1.48;;;;;;;;;;4999766;28;20021;-52
2022/05/23 14:56:55;;;;;;;4.03;1.70;;;;;;;;;;5004060;28;20033;-51
2022/05/23 15:02:23;;;;;;;6.32;2.10;;;;;;;;;;4999318;28;20073;-51
2022/05/23 15:04:49;;;;;;;6.07;1.70;;;;;;;;;;4997135;28;20057;-52
2022/05/23 15:07:16;;;;;;;6.00;1.63;;;;;;;;;;5001410;28;20323;-51
2022/05/23 15:09:42;;;;;;;5.80;1.60;;;;;;;;;;5007115;28;20085;-53
2022/05/23 15:12:12;;;;;;;3.78;1.40;;;;;;;;;;4998383;28;20463;-52
2022/05/23 15:14:37;;;;;;;3.80;1.63;;;;;;;;;;4991267;28;20312;-52
2022/05/23 15:17:02;;;;;;;4.07;1.90;;;;;;;;;;5000496;28;20481;-52
2022/05/23 15:19:27;;;;;;;3.50;1.70;;;;;;;;;;5001759;28;20032;-52
2022/05/23 15:21:54;;;;;;;4.23;1.70;;;;;;;;;;4983957;28;20030;-52
2022/05/23 15:24:19;;;;;;;3.63;1.40;;;;;;;;;;4989331;28;20026;-52
2022/05/23 15:26:45;;;;;;;4.83;1.60;;;;;;;;;;4981506;28;20394;-53
2022/05/23 15:29:10;;;;;;;3.17;1.52;;;;;;;;;;4985029;28;20049;-54
2022/05/23 15:31:43;;;;;;;2.23;1.67;;;;;;;;;;4984897;28;20887;-55
2022/05/23 15:34:08;;;;;;;5.40;1.55;;;;;;;;;;4983302;28;20314;-56
2022/05/23 15:36:33;;;;;;;2.20;1.43;;;;;;;;;;4991298;28;20172;-54
2022/05/23 15:38:59;;;;;;;3.78;1.70;;;;;;;;;;4984584;28;20261;-53
2022/05/23 15:41:24;;;;;;;3.33;1.57;;;;;;;;;;4981087;28;20030;-52
2022/05/23 15:43:49;;;;;;;3.22;1.50;;;;;;;;;;4983884;28;20462;-53
2022/05/23 15:46:21;;;;;;;2.53;1.90;;;;;;;;;;4993354;28;20026;-57
2022/05/23 15:48:47;;;;;;;2.40;1.60;;;;;;;;;;4984611;28;20073;-58
2022/05/23 15:51:12;;;;;;;2.25;1.48;;;;;;;;;;4984720;28;20045;-55
2022/05/23 15:53:38;;;;;;;2.30;1.48;;;;;;;;;;4982051;28;20022;-57
2022/05/23 15:56:04;;;;;;;3.50;1.80;;;;;;;;;;4986834;28;20061;-57